createdAt,value
2023-03-06T00:02:21.280Z,72.90
2023-03-06T00:04:51.087Z,73.19
2023-03-06T00:07:23.574Z,73.17
2023-03-06T00:09:53.350Z,73.16
2023-03-06T00:12:23.971Z,73.31
2023-03-06T00:14:54.276Z,72.90
2023-03-06T00:17:24.145Z,72.70
2023-03-06T00:19:56.321Z,73.06
2023-03-06T00:22:30.206Z,72.69
2023-03-06T00:25:03.126Z,72.34
2023-03-06T00:27:34.486Z,72.44
2023-03-06T00:30:07.839Z,72.56
2023-03-06T00:32:37.833Z,72.75
2023-03-06T00:35:09.961Z,72.96
2023-03-06T00:37:45.088Z,73.53
2023-03-06T00:40:18.548Z,73.11
2023-03-06T00:42:50.473Z,72.36
2023-03-06T00:45:23.433Z,73.15
2023-03-06T00:47:53.523Z,73.90
2023-03-06T00:50:23.598Z,73.49
2023-03-06T00:52:56.064Z,73.00
2023-03-06T00:55:29.451Z,72.47
2023-03-06T00:57:59.870Z,72.49
2023-03-06T01:00:31.221Z,72.55
2023-03-06T01:03:01.277Z,72.62
2023-03-06T01:05:31.466Z,72.66
2023-03-06T01:08:05.104Z,72.83
2023-03-06T01:10:35.677Z,73.05
2023-03-06T01:13:06.094Z,73.04
2023-03-06T01:15:36.615Z,72.90
2023-03-06T01:18:08.619Z,72.91
2023-03-06T01:20:39.930Z,73.27
2023-03-06T01:23:12.642Z,73.48
2023-03-06T01:25:42.508Z,73.53
2023-03-06T01:28:13.160Z,73.86
2023-03-06T01:30:43.049Z,73.74
2023-03-06T01:33:13.261Z,74.22
2023-03-06T01:35:43.418Z,74.41
2023-03-06T01:38:17.530Z,73.95
2023-03-06T01:40:47.519Z,73.90
2023-03-06T01:43:32.102Z,74.07
2023-03-06T01:46:28.280Z,73.77
2023-03-06T01:49:02.000Z,73.89
2023-03-06T01:51:38.161Z,73.76
2023-03-06T01:54:17.224Z,72.60
2023-03-06T01:56:51.569Z,72.44
2023-03-06T01:59:25.099Z,71.86
2023-03-06T02:01:58.029Z,71.97
2023-03-06T02:04:28.424Z,72.32
2023-03-06T02:07:06.882Z,72.93
2023-03-06T02:09:41.529Z,72.49
2023-03-06T02:12:20.438Z,72.71
2023-03-06T02:14:52.951Z,72.02
2023-03-06T02:17:27.020Z,72.39
2023-03-06T02:20:06.532Z,72.06
2023-03-06T02:22:43.261Z,72.27
2023-03-06T02:25:34.633Z,72.35
2023-03-06T02:28:05.128Z,72.53
2023-03-06T02:30:35.251Z,73.34
2023-03-06T02:33:05.389Z,73.56
2023-03-06T02:35:38.496Z,74.21
2023-03-06T02:38:14.026Z,74.51
2023-03-06T02:40:52.817Z,74.39
2023-03-06T02:43:29.321Z,74.64
2023-03-06T02:45:59.877Z,74.88
2023-03-06T02:48:29.736Z,75.10
2023-03-06T02:50:59.754Z,75.29
2023-03-06T02:53:29.925Z,74.96
2023-03-06T02:56:05.072Z,75.33
2023-03-06T02:58:35.495Z,75.54
2023-03-06T03:01:07.680Z,74.90
2023-03-06T03:03:38.266Z,75.20
2023-03-06T03:06:09.862Z,75.81
2023-03-06T03:08:42.195Z,75.80
2023-03-06T03:11:17.673Z,75.64
2023-03-06T03:13:52.466Z,76.41
2023-03-06T03:16:27.573Z,76.48
2023-03-06T03:19:02.736Z,76.04
2023-03-06T03:21:40.474Z,76.21
2023-03-06T03:24:12.775Z,76.27
2023-03-06T03:26:51.259Z,76.62
2023-03-06T03:29:23.304Z,76.21
2023-03-06T03:32:02.446Z,75.48
2023-03-06T03:34:33.762Z,75.88
2023-03-06T03:37:06.742Z,77.63
2023-03-06T03:39:37.189Z,76.70
2023-03-06T03:42:10.808Z,76.08
2023-03-06T03:44:40.630Z,75.75
2023-03-06T03:47:10.575Z,75.87
2023-03-06T03:49:42.153Z,75.74
2023-03-06T03:52:12.455Z,75.90
2023-03-06T03:54:46.925Z,75.96
2023-03-06T03:57:19.672Z,75.74
2023-03-06T03:59:53.768Z,75.84
2023-03-06T04:02:43.874Z,75.67
2023-03-06T04:05:22.854Z,75.86
2023-03-06T04:07:52.895Z,76.20
2023-03-06T04:10:25.456Z,76.64
2023-03-06T04:12:58.546Z,77.15
2023-03-06T04:15:29.798Z,77.01
2023-03-06T04:18:00.149Z,77.24
2023-03-06T04:20:32.511Z,77.63
2023-03-06T04:23:05.909Z,78.65
2023-03-06T04:25:36.143Z,78.86
2023-03-06T04:28:11.021Z,78.93
2023-03-06T04:30:41.906Z,79.68
2023-03-06T04:33:12.022Z,79.60
2023-03-06T04:35:45.451Z,79.53
2023-03-06T04:38:21.669Z,79.68
2023-03-06T04:40:52.326Z,78.90
2023-03-06T04:43:25.379Z,78.49
2023-03-06T04:45:55.504Z,78.25
2023-03-06T04:48:25.501Z,78.60
2023-03-06T04:50:55.649Z,79.08
2023-03-06T04:53:25.566Z,79.65
2023-03-06T04:55:55.696Z,79.16
2023-03-06T04:58:33.148Z,78.93
2023-03-06T05:01:04.702Z,79.04
2023-03-06T05:03:38.652Z,79.24
2023-03-06T05:06:10.434Z,79.10
2023-03-06T05:08:41.341Z,80.49
2023-03-06T05:11:11.448Z,78.77
2023-03-06T05:13:44.356Z,78.34
2023-03-06T05:16:16.559Z,78.19
2023-03-06T05:18:50.155Z,78.10
2023-03-06T05:21:22.637Z,77.98
2023-03-06T05:23:54.616Z,77.85
2023-03-06T05:26:25.479Z,77.77
2023-03-06T05:28:58.376Z,77.95
2023-03-06T05:31:28.747Z,77.82
2023-03-06T05:34:02.993Z,78.88
2023-03-06T05:36:33.166Z,79.10
2023-03-06T05:39:06.718Z,78.94
2023-03-06T05:41:40.428Z,78.50
2023-03-06T05:44:15.461Z,78.37
2023-03-06T05:46:48.550Z,78.30
2023-03-06T05:49:20.314Z,78.48
2023-03-06T05:51:52.659Z,79.42
2023-03-06T05:54:24.518Z,78.87
2023-03-06T05:56:57.320Z,78.75
2023-03-06T05:59:33.007Z,78.45
2023-03-06T06:02:05.648Z,78.62
2023-03-06T06:04:36.841Z,78.63
2023-03-06T06:07:06.985Z,78.60
2023-03-06T06:09:36.858Z,78.05
2023-03-06T06:12:07.318Z,77.83
2023-03-06T06:14:42.535Z,77.40
2023-03-06T06:17:13.720Z,77.27
2023-03-06T06:19:46.541Z,76.95
2023-03-06T06:22:18.938Z,76.80
2023-03-06T06:24:49.905Z,76.23
2023-03-06T06:27:20.347Z,75.96
2023-03-06T06:29:55.535Z,75.67
2023-03-06T06:32:27.371Z,75.11
2023-03-06T06:34:59.257Z,74.85
2023-03-06T06:37:29.199Z,74.66
2023-03-06T06:40:02.150Z,74.76
2023-03-06T06:42:38.982Z,75.06
2023-03-06T06:45:13.991Z,74.95
2023-03-06T06:47:44.622Z,75.05
2023-03-06T06:50:16.743Z,74.63
2023-03-06T06:52:48.994Z,73.94
2023-03-06T06:55:19.169Z,73.92
2023-03-06T06:57:49.002Z,74.01
2023-03-06T07:00:24.449Z,74.00
2023-03-06T07:02:54.235Z,73.73
2023-03-06T07:05:24.073Z,73.59
2023-03-06T07:07:54.105Z,73.69
2023-03-06T07:10:24.356Z,74.58
2023-03-06T07:12:56.540Z,74.50
2023-03-06T07:15:31.148Z,74.81
2023-03-06T07:18:01.412Z,75.49
2023-03-06T07:20:32.079Z,75.42
2023-03-06T07:23:02.619Z,75.09
2023-03-06T07:25:40.998Z,75.26
2023-03-06T07:28:15.189Z,74.72
2023-03-06T07:30:50.067Z,74.81
2023-03-06T07:33:22.610Z,74.33
2023-03-06T07:35:54.654Z,74.39
2023-03-06T07:38:27.415Z,75.22
2023-03-06T07:40:58.326Z,75.36
2023-03-06T07:43:29.700Z,74.76
2023-03-06T07:46:08.962Z,74.92
2023-03-06T07:48:40.037Z,74.63
2023-03-06T07:51:14.853Z,74.21
2023-03-06T07:53:45.139Z,73.53
2023-03-06T07:56:16.335Z,73.15
2023-03-06T07:58:48.436Z,73.06
2023-03-06T08:01:25.046Z,72.43
2023-03-06T08:03:56.209Z,72.41
2023-03-06T08:06:29.158Z,72.26
2023-03-06T08:08:59.848Z,72.30
2023-03-06T08:11:33.373Z,72.34
2023-03-06T08:14:03.417Z,73.08
2023-03-06T08:16:35.975Z,73.27
2023-03-06T08:19:05.857Z,71.88
2023-03-06T08:21:35.738Z,71.09
2023-03-06T08:24:07.452Z,71.05
2023-03-06T08:26:37.853Z,70.60
2023-03-06T08:29:08.913Z,70.27
2023-03-06T08:31:44.819Z,70.24
2023-03-06T08:34:16.682Z,69.28
2023-03-06T08:36:46.995Z,69.82
2023-03-06T08:39:21.034Z,69.35
2023-03-06T08:41:53.572Z,69.24
2023-03-06T08:44:27.107Z,68.68
2023-03-06T08:47:05.093Z,68.88
2023-03-06T08:49:39.562Z,69.05
2023-03-06T08:52:11.182Z,68.49
2023-03-06T08:54:41.032Z,68.25
2023-03-06T08:57:11.155Z,68.29
2023-03-06T08:59:44.461Z,68.47
2023-03-06T09:02:18.032Z,67.69
2023-03-06T09:04:48.106Z,67.56
2023-03-06T09:07:17.966Z,67.37
2023-03-06T09:09:48.918Z,67.20
2023-03-06T09:12:19.270Z,66.47
2023-03-06T09:14:49.101Z,65.65
2023-03-06T09:17:22.128Z,65.42
2023-03-06T09:19:52.512Z,65.84
2023-03-06T09:22:29.636Z,65.59
2023-03-06T09:24:59.547Z,65.63
2023-03-06T09:27:30.314Z,65.00
2023-03-06T09:30:00.612Z,64.49
2023-03-06T09:32:33.442Z,64.90
2023-03-06T09:35:03.888Z,64.72
2023-03-06T09:37:34.555Z,64.52
2023-03-06T09:40:06.003Z,64.16
2023-03-06T09:42:46.460Z,62.77
2023-03-06T09:45:17.918Z,62.34
2023-03-06T09:48:01.480Z,62.45
2023-03-06T09:50:41.128Z,61.51
2023-03-06T09:53:34.445Z,61.32
2023-03-06T09:56:14.821Z,62.03
2023-03-06T09:58:57.542Z,63.17
2023-03-06T10:01:35.393Z,62.42
2023-03-06T10:04:30.478Z,61.32
2023-03-06T10:07:06.905Z,61.00
2023-03-06T10:09:50.940Z,59.92
2023-03-06T10:12:28.860Z,60.31
2023-03-06T10:15:06.525Z,59.67
2023-03-06T10:17:42.554Z,59.56
2023-03-06T10:20:20.928Z,59.71
2023-03-06T10:23:13.474Z,59.34
2023-03-06T10:25:55.820Z,59.89
2023-03-06T10:28:35.938Z,59.93
2023-03-06T10:31:16.092Z,59.78
2023-03-06T10:34:11.920Z,59.76
2023-03-06T10:36:44.939Z,58.68
2023-03-06T10:39:22.389Z,58.49
2023-03-06T10:41:58.792Z,58.49
2023-03-06T10:44:30.845Z,58.76
2023-03-06T10:47:35.342Z,59.97
2023-03-06T10:50:09.996Z,59.78
2023-03-06T10:52:44.414Z,59.29
2023-03-06T10:55:28.669Z,58.74
2023-03-06T10:57:59.646Z,59.05
2023-03-06T11:00:36.884Z,58.34
2023-03-06T11:03:19.140Z,58.40
2023-03-06T11:06:04.866Z,58.30
2023-03-06T11:08:44.702Z,58.03
2023-03-06T11:11:37.139Z,56.78
2023-03-06T11:14:17.987Z,56.16
2023-03-06T11:16:53.734Z,56.08
2023-03-06T11:19:28.181Z,56.20
2023-03-06T11:22:06.755Z,56.34
2023-03-06T11:24:45.995Z,56.56
2023-03-06T11:27:30.569Z,56.59
2023-03-06T11:30:08.097Z,56.85
2023-03-06T11:32:50.449Z,56.52
2023-03-06T11:35:36.122Z,57.64
2023-03-06T11:38:14.828Z,56.30
2023-03-06T11:40:56.681Z,57.78
2023-03-06T11:43:37.288Z,58.00
2023-03-06T11:46:17.884Z,58.37
2023-03-06T11:48:55.703Z,58.65
2023-03-06T11:51:29.674Z,59.09
2023-03-06T11:54:03.576Z,58.96
2023-03-06T11:56:51.304Z,59.41
2023-03-06T12:00:01.325Z,59.67
2023-03-06T12:02:54.493Z,59.60
2023-03-06T12:05:39.530Z,59.96
2023-03-06T12:08:33.118Z,60.64
2023-03-06T12:11:22.548Z,60.63
2023-03-06T12:14:23.517Z,60.26
2023-03-06T12:17:12.703Z,59.79
2023-03-06T12:20:00.239Z,58.59
2023-03-06T12:22:58.023Z,58.73
2023-03-06T12:25:49.746Z,59.03
2023-03-06T12:28:46.595Z,58.21
2023-03-06T12:31:46.474Z,58.34
2023-03-06T12:34:40.651Z,58.31
2023-03-06T12:37:25.018Z,58.44
2023-03-06T12:40:31.228Z,58.37
2023-03-06T12:43:40.069Z,58.26
2023-03-06T12:46:18.558Z,58.29
2023-03-06T12:49:04.719Z,59.19
2023-03-06T12:51:38.731Z,59.56
2023-03-06T12:54:10.082Z,60.39
2023-03-06T12:56:46.639Z,60.69
2023-03-06T12:59:44.201Z,60.63
2023-03-06T13:02:58.081Z,61.24
2023-03-06T13:05:44.122Z,61.07
2023-03-06T13:09:00.604Z,61.65
2023-03-06T13:12:06.735Z,61.00
2023-03-06T13:14:59.100Z,61.24
2023-03-06T13:17:42.199Z,60.70
2023-03-06T13:20:48.802Z,60.83
2023-03-06T13:23:53.435Z,60.99
2023-03-06T13:26:51.692Z,60.94
2023-03-06T13:29:52.870Z,60.75
2023-03-06T13:32:33.045Z,61.12
2023-03-06T13:35:03.042Z,60.17
2023-03-06T13:37:52.364Z,60.16
2023-03-06T13:40:32.443Z,60.71
2023-03-06T13:43:23.672Z,60.61
2023-03-06T13:45:54.269Z,61.06
2023-03-06T13:48:47.652Z,61.36
2023-03-06T13:51:26.648Z,61.20
2023-03-06T13:54:23.285Z,61.42
2023-03-06T13:57:17.091Z,61.27
2023-03-06T14:00:14.460Z,61.58
2023-03-06T14:03:03.681Z,61.48
2023-03-06T14:05:45.035Z,61.18
2023-03-06T14:08:27.079Z,60.61
2023-03-06T14:11:09.042Z,60.76
2023-03-06T14:13:53.405Z,60.95
2023-03-06T14:16:40.627Z,60.73
2023-03-06T14:19:22.740Z,61.03
2023-03-06T14:22:09.858Z,61.09
2023-03-06T14:24:54.300Z,60.89
2023-03-06T14:27:48.419Z,60.66
2023-03-06T14:30:25.211Z,60.44
2023-03-06T14:32:59.256Z,60.41
2023-03-06T14:35:34.792Z,59.90
2023-03-06T14:38:08.412Z,59.81
2023-03-06T14:40:47.845Z,59.44
2023-03-06T14:43:31.422Z,59.38
2023-03-06T14:46:03.518Z,59.07
2023-03-06T14:48:47.864Z,58.81
2023-03-06T14:51:21.734Z,59.04
2023-03-06T14:53:54.405Z,59.45
2023-03-06T14:56:31.459Z,59.34
2023-03-06T14:59:09.926Z,59.20
2023-03-06T15:01:45.852Z,59.46
2023-03-06T15:04:31.458Z,59.68
2023-03-06T15:07:04.337Z,59.59
2023-03-06T15:09:39.069Z,59.12
2023-03-06T15:12:33.918Z,59.59
2023-03-06T15:15:31.549Z,60.19
2023-03-06T15:18:02.324Z,59.85
2023-03-06T15:20:47.693Z,59.84
2023-03-06T15:23:25.116Z,58.81
2023-03-06T15:25:59.131Z,59.58
2023-03-06T15:28:36.082Z,59.00
2023-03-06T15:31:28.137Z,59.07
2023-03-06T15:34:23.969Z,58.51
2023-03-06T15:36:57.291Z,59.09
2023-03-06T15:39:45.282Z,58.25
2023-03-06T15:42:22.535Z,58.23
2023-03-06T15:44:56.434Z,58.37
2023-03-06T15:47:35.747Z,57.77
2023-03-06T15:50:16.070Z,58.12
2023-03-06T15:52:52.036Z,58.07
2023-03-06T15:55:26.021Z,57.82
2023-03-06T15:58:05.506Z,58.08
2023-03-06T16:00:38.803Z,57.74
2023-03-06T16:03:15.338Z,58.08
2023-03-06T16:05:47.030Z,58.20
2023-03-06T16:08:17.544Z,58.18
2023-03-06T16:10:53.491Z,58.43
2023-03-06T16:13:30.692Z,58.65
2023-03-06T16:16:04.714Z,58.60
2023-03-06T16:18:41.363Z,58.96
2023-03-06T16:21:11.434Z,59.17
2023-03-06T16:23:42.779Z,59.07
2023-03-06T16:26:23.130Z,59.39
2023-03-06T16:28:55.199Z,59.16
2023-03-06T16:31:25.302Z,59.56
2023-03-06T16:33:58.172Z,59.60
2023-03-06T16:36:30.236Z,59.92
2023-03-06T16:39:00.014Z,59.54
2023-03-06T16:41:33.468Z,58.88
2023-03-06T16:44:04.090Z,59.29
2023-03-06T16:46:34.032Z,59.27
2023-03-06T16:49:10.398Z,59.28
2023-03-06T16:51:40.527Z,58.97
2023-03-06T16:54:12.985Z,58.93
2023-03-06T16:56:42.942Z,58.92
2023-03-06T16:59:14.393Z,58.83
2023-03-06T17:01:45.934Z,58.51
2023-03-06T17:04:18.399Z,58.68
2023-03-06T17:06:52.928Z,58.92
2023-03-06T17:09:22.813Z,58.45
2023-03-06T17:11:52.616Z,59.06
2023-03-06T17:14:24.742Z,58.91
2023-03-06T17:16:57.210Z,59.09
2023-03-06T17:19:30.293Z,59.18
2023-03-06T17:22:01.037Z,59.50
2023-03-06T17:24:31.178Z,59.87
2023-03-06T17:27:01.300Z,59.90
2023-03-06T17:29:32.011Z,59.95
2023-03-06T17:32:06.587Z,59.98
2023-03-06T17:34:40.387Z,59.91
2023-03-06T17:37:12.831Z,59.59
2023-03-06T17:39:44.157Z,59.95
2023-03-06T17:42:14.093Z,59.94
2023-03-06T17:44:48.382Z,59.94
2023-03-06T17:47:21.334Z,60.01
2023-03-06T17:49:54.101Z,60.08
2023-03-06T17:52:24.681Z,60.31
2023-03-06T17:54:55.705Z,60.45
2023-03-06T17:57:25.805Z,59.84
2023-03-06T17:59:56.466Z,59.87
2023-03-06T18:02:32.055Z,60.21
2023-03-06T18:05:04.856Z,60.73
2023-03-06T18:07:35.859Z,60.80
2023-03-06T18:10:12.973Z,61.04
2023-03-06T18:12:44.315Z,60.79
2023-03-06T18:15:14.608Z,61.03
2023-03-06T18:17:44.484Z,61.04
2023-03-06T18:20:17.652Z,60.81
2023-03-06T18:22:47.841Z,61.09
2023-03-06T18:25:18.161Z,60.97
2023-03-06T18:27:49.155Z,61.02
2023-03-06T18:30:20.363Z,60.89
2023-03-06T18:32:50.910Z,60.99
2023-03-06T18:35:24.473Z,61.12
2023-03-06T18:37:58.542Z,60.60
2023-03-06T18:40:28.493Z,60.74
2023-03-06T18:42:58.920Z,60.45
2023-03-06T18:45:29.073Z,60.89
2023-03-06T18:47:59.512Z,60.37
2023-03-06T18:50:34.195Z,60.46
2023-03-06T18:53:10.221Z,60.58
2023-03-06T18:55:40.060Z,60.38
2023-03-06T18:58:13.346Z,60.48
2023-03-06T19:00:44.311Z,61.23
2023-03-06T19:03:15.129Z,60.90
2023-03-06T19:05:52.736Z,60.19
2023-03-06T19:08:23.434Z,59.19
2023-03-06T19:10:57.498Z,59.82
2023-03-06T19:13:28.808Z,59.88
2023-03-06T19:15:59.757Z,59.82
2023-03-06T19:18:31.763Z,59.68
2023-03-06T19:21:14.669Z,60.21
2023-03-06T19:23:45.926Z,60.24
2023-03-06T19:26:18.913Z,60.52
2023-03-06T19:28:50.986Z,60.27
2023-03-06T19:31:25.177Z,60.28
2023-03-06T19:33:58.704Z,60.27
2023-03-06T19:36:34.285Z,60.28
2023-03-06T19:39:06.534Z,60.36
2023-03-06T19:41:37.780Z,60.53
2023-03-06T19:44:09.577Z,61.27
2023-03-06T19:46:43.547Z,61.42
2023-03-06T19:49:18.610Z,61.52
2023-03-06T19:51:51.132Z,61.68
2023-03-06T19:54:23.557Z,61.97
2023-03-06T19:56:53.981Z,62.21
2023-03-06T19:59:24.521Z,62.32
2023-03-06T20:01:54.398Z,62.44
2023-03-06T20:04:24.645Z,62.41
2023-03-06T20:06:57.173Z,62.69
2023-03-06T20:09:27.361Z,62.24
2023-03-06T20:11:57.210Z,62.25
2023-03-06T20:14:27.630Z,62.13
2023-03-06T20:16:58.931Z,62.19
2023-03-06T20:19:30.632Z,62.43
2023-03-06T20:22:04.099Z,62.15
2023-03-06T20:24:35.002Z,62.61
2023-03-06T20:27:06.244Z,62.39
2023-03-06T20:29:36.868Z,62.58
2023-03-06T20:32:06.974Z,62.58
2023-03-06T20:34:38.863Z,62.82
2023-03-06T20:37:13.062Z,62.99
2023-03-06T20:39:43.205Z,62.84
2023-03-06T20:42:13.402Z,62.56
2023-03-06T20:44:45.910Z,62.49
2023-03-06T20:47:16.354Z,62.58
2023-03-06T20:49:46.253Z,62.73
2023-03-06T20:52:18.827Z,62.78
2023-03-06T20:54:49.252Z,63.39
2023-03-06T20:57:19.359Z,63.96
2023-03-06T20:59:49.552Z,62.99
2023-03-06T21:02:19.439Z,62.75
2023-03-06T21:04:49.718Z,62.32
2023-03-06T21:07:22.662Z,62.34
2023-03-06T21:09:54.489Z,62.39
2023-03-06T21:12:27.457Z,62.55
2023-03-06T21:14:59.500Z,62.37
2023-03-06T21:17:31.901Z,62.38
2023-03-06T21:20:01.973Z,62.23
2023-03-06T21:22:36.288Z,62.37
2023-03-06T21:25:12.955Z,62.46
2023-03-06T21:27:46.621Z,62.69
2023-03-06T21:30:17.445Z,62.62
2023-03-06T21:32:51.466Z,62.92
2023-03-06T21:35:25.587Z,63.43
2023-03-06T21:38:00.984Z,63.19
2023-03-06T21:40:31.409Z,63.34
2023-03-06T21:43:02.433Z,63.51
2023-03-06T21:45:34.562Z,63.41
2023-03-06T21:48:06.019Z,62.99
2023-03-06T21:50:35.809Z,63.57
2023-03-06T21:53:08.441Z,63.68
2023-03-06T21:55:41.697Z,63.77
2023-03-06T21:58:12.004Z,63.71
2023-03-06T22:00:41.889Z,64.01
2023-03-06T22:03:13.044Z,64.17
2023-03-06T22:05:43.379Z,64.03
2023-03-06T22:08:21.215Z,63.99
2023-03-06T22:10:52.214Z,64.13
2023-03-06T22:13:23.034Z,64.25
2023-03-06T22:15:55.284Z,64.23
2023-03-06T22:18:25.464Z,64.13
2023-03-06T22:20:55.989Z,64.58
2023-03-06T22:23:28.958Z,64.71
2023-03-06T22:25:58.806Z,64.60
2023-03-06T22:28:38.917Z,64.80
2023-03-06T22:31:12.671Z,65.09
2023-03-06T22:33:44.618Z,65.21
2023-03-06T22:36:17.941Z,65.56
2023-03-06T22:38:53.319Z,65.32
2023-03-06T22:41:28.882Z,65.15
2023-03-06T22:44:04.500Z,65.33
2023-03-06T22:46:35.570Z,65.24
2023-03-06T22:49:07.354Z,64.92
2023-03-06T22:51:37.619Z,65.51
2023-03-06T22:54:11.217Z,65.72
2023-03-06T22:56:41.177Z,65.73
2023-03-06T22:59:11.603Z,65.90
2023-03-06T23:01:41.850Z,66.49
2023-03-06T23:04:13.598Z,66.83
2023-03-06T23:06:47.005Z,66.85
2023-03-06T23:09:25.424Z,67.11
2023-03-06T23:12:18.094Z,67.11
2023-03-06T23:15:11.540Z,67.29
2023-03-06T23:18:00.505Z,67.48
2023-03-06T23:20:49.747Z,67.60
2023-03-06T23:23:39.863Z,67.85
2023-03-06T23:26:16.350Z,68.10
2023-03-06T23:28:46.883Z,68.13
2023-03-06T23:31:22.234Z,68.41
2023-03-06T23:33:53.450Z,68.48
2023-03-06T23:36:26.166Z,68.59
2023-03-06T23:38:58.988Z,68.89
2023-03-06T23:41:32.667Z,68.78
2023-03-06T23:44:03.486Z,68.96
2023-03-06T23:46:35.083Z,69.02
2023-03-06T23:49:05.567Z,69.02
2023-03-06T23:51:36.560Z,68.72
2023-03-06T23:54:07.885Z,69.01
2023-03-06T23:56:42.518Z,69.15
2023-03-06T23:59:16.676Z,69.18
